Cushman, Massachusetts
Current Conditions -  °F | °C
As of 9:58 PM on Wednesday 26 Nov 2014 (Local Time) from KCEF Reporting Station
Light Snow Light Snow  
Wind Chill: 20°   Ceiling: 1300
Heat Index: 33°   Visibility: 0.75mi
Dew Point: 31°   Wind: 23mph
Humidity: 92%   Direction: 360°N
Pressure: 29.74"   Gusts: 28mph
Location:  42.3773°N, 72.4671°W
Report Text: KCEF 270258Z 36020G24KT 3/4SM R23/P6000FT -SNPL BR SCT003 OVC013 00/M01 A2974 RMK AO2A PK WND 02028/04 SLP079 P0004 60009 T00041007 58011
Loading
Personal Weather Stations






























Interactive Weather Map New forecast layout! Learn more

10-Day Weather Forecast

Advertisements
Track Severe Weather on mobile